createdAt,value
2018-06-02T00:00:25.113Z,4.00
2018-06-02T00:01:25.107Z,4.00
2018-06-02T00:02:25.086Z,4.00
2018-06-02T00:04:57.884Z,4.00
2018-06-02T00:05:57.871Z,4.00
2018-06-02T00:06:57.856Z,4.00
2018-06-02T00:07:57.841Z,4.00
2018-06-02T00:08:57.832Z,4.00
2018-06-02T00:09:57.817Z,4.00
2018-06-02T00:10:57.804Z,4.00
2018-06-02T00:11:57.789Z,4.00
2018-06-02T00:12:57.809Z,4.00
2018-06-02T00:13:57.770Z,4.00
2018-06-02T00:14:57.751Z,4.00
2018-06-02T00:15:57.737Z,4.00
2018-06-02T00:16:57.729Z,4.00
2018-06-02T00:17:57.714Z,4.00
2018-06-02T00:18:57.703Z,4.00
2018-06-02T00:19:57.687Z,4.00
2018-06-02T00:20:57.681Z,4.00
2018-06-02T00:21:57.683Z,4.00
2018-06-02T00:22:57.647Z,4.00
2018-06-02T00:23:57.634Z,4.00
2018-06-02T00:24:57.623Z,4.00
2018-06-02T00:25:57.610Z,4.00
2018-06-02T00:26:57.600Z,4.00
2018-06-02T00:27:57.586Z,8.00
2018-06-02T00:28:57.575Z,4.00
2018-06-02T00:29:57.558Z,4.00
2018-06-02T00:30:57.646Z,4.00
2018-06-02T00:31:57.547Z,4.00
2018-06-02T00:32:57.532Z,4.00
2018-06-02T00:33:57.515Z,4.00
2018-06-02T00:34:57.492Z,4.00
2018-06-02T00:35:57.478Z,4.00
2018-06-02T00:36:57.475Z,4.00
2018-06-02T00:37:57.453Z,4.00
2018-06-02T00:38:57.443Z,4.00
2018-06-02T00:39:57.426Z,4.00
2018-06-02T00:40:57.429Z,4.00
2018-06-02T00:41:57.411Z,4.00
2018-06-02T00:42:57.390Z,4.00
2018-06-02T00:43:57.376Z,4.00
2018-06-02T00:44:57.371Z,4.00
2018-06-02T00:45:57.352Z,4.00
2018-06-02T00:46:57.345Z,4.00
2018-06-02T00:47:57.322Z,4.00
2018-06-02T00:48:57.309Z,4.00
2018-06-02T00:49:57.299Z,4.00
2018-06-02T00:50:57.291Z,4.00
2018-06-02T00:51:57.281Z,4.00
2018-06-02T00:52:57.258Z,4.00
2018-06-02T00:53:57.264Z,4.00
2018-06-02T00:54:57.291Z,4.00
2018-06-02T00:55:57.224Z,4.00
2018-06-02T00:56:57.208Z,4.00
2018-06-02T00:57:57.193Z,4.00
2018-06-02T00:58:57.190Z,4.00
2018-06-02T00:59:57.168Z,4.00
2018-06-02T01:00:57.156Z,4.00
2018-06-02T01:01:57.143Z,4.00
2018-06-02T01:02:57.129Z,4.00
2018-06-02T01:03:57.132Z,4.00
2018-06-02T01:04:57.104Z,4.00
2018-06-02T01:05:57.096Z,4.00
2018-06-02T01:06:57.084Z,4.00
2018-06-02T01:08:57.051Z,4.00
2018-06-02T01:09:58.050Z,4.00
2018-06-02T01:10:57.033Z,4.00
2018-06-02T01:11:57.013Z,4.00
2018-06-02T01:12:57.000Z,4.00
2018-06-02T01:13:56.985Z,4.00
2018-06-02T01:14:56.973Z,4.00
2018-06-02T01:15:56.959Z,4.00
2018-06-02T01:16:56.947Z,4.00
2018-06-02T01:17:56.933Z,4.00
2018-06-02T01:18:56.921Z,4.00
2018-06-02T01:19:56.910Z,4.00
2018-06-02T01:20:56.986Z,4.00
2018-06-02T01:21:57.690Z,4.00
2018-06-02T01:22:57.277Z,4.00
2018-06-02T01:23:56.863Z,4.00
2018-06-02T01:24:56.854Z,4.00
2018-06-02T01:25:56.829Z,4.00
2018-06-02T01:27:00.245Z,4.00
2018-06-02T01:27:56.801Z,4.00
2018-06-02T01:29:56.876Z,4.00
2018-06-02T01:31:41.138Z,4.00
2018-06-02T01:32:41.128Z,4.00
2018-06-02T01:33:41.108Z,4.00
2018-06-02T01:34:41.097Z,4.00
2018-06-02T01:36:14.292Z,4.00
2018-06-02T01:36:41.069Z,4.00
2018-06-02T01:37:41.057Z,4.00
2018-06-02T01:38:41.051Z,4.00
2018-06-02T01:39:41.028Z,4.00
2018-06-02T01:40:41.025Z,4.00
2018-06-02T01:41:41.002Z,4.00
2018-06-02T01:42:40.989Z,4.00
2018-06-02T01:43:40.974Z,4.00
2018-06-02T01:44:40.968Z,4.00
2018-06-02T01:46:14.174Z,4.00
2018-06-02T01:46:40.936Z,4.00
2018-06-02T01:47:40.939Z,4.00
2018-06-02T01:48:40.911Z,8.00
2018-06-02T01:49:40.900Z,4.00
2018-06-02T01:50:40.881Z,4.00
2018-06-02T01:51:40.867Z,4.00
2018-06-02T01:52:40.863Z,4.00
2018-06-02T01:53:40.841Z,4.00
2018-06-02T01:54:40.826Z,4.00
2018-06-02T01:55:40.822Z,4.00
2018-06-02T01:56:40.801Z,4.00
2018-06-02T01:57:40.786Z,4.00
2018-06-02T01:58:40.776Z,4.00
2018-06-02T01:59:40.759Z,4.00
2018-06-02T02:00:40.758Z,4.00
2018-06-02T02:01:40.734Z,4.00
2018-06-02T02:02:40.729Z,4.00
2018-06-02T02:03:40.708Z,4.00
2018-06-02T02:05:40.679Z,4.00
2018-06-02T02:06:40.668Z,4.00
2018-06-02T02:07:40.653Z,4.00
2018-06-02T02:08:40.641Z,4.00
2018-06-02T02:09:40.643Z,4.00
2018-06-02T02:10:40.614Z,4.00
2018-06-02T02:11:40.601Z,4.00
2018-06-02T02:12:40.597Z,4.00
2018-06-02T02:14:13.784Z,8.00
2018-06-02T02:14:40.619Z,8.00
2018-06-02T02:15:40.547Z,8.00
2018-06-02T02:16:40.531Z,8.00
2018-06-02T02:17:40.519Z,8.00
2018-06-02T02:18:40.508Z,8.00
2018-06-02T02:19:40.501Z,8.00
2018-06-02T02:20:40.480Z,8.00
2018-06-02T02:21:40.466Z,8.00
2018-06-02T02:22:40.476Z,8.00
2018-06-02T02:23:40.442Z,8.00
2018-06-02T02:24:40.426Z,8.00
2018-06-02T02:25:40.413Z,8.00
2018-06-02T02:26:40.402Z,8.00
2018-06-02T02:27:40.395Z,8.00
2018-06-02T02:28:40.374Z,8.00
2018-06-02T02:29:40.366Z,8.00
2018-06-02T02:31:40.332Z,4.00
2018-06-02T02:32:40.319Z,4.00
2018-06-02T02:33:40.305Z,4.00
2018-06-02T02:34:40.291Z,4.00
2018-06-02T02:35:40.282Z,4.00
2018-06-02T02:36:40.265Z,4.00
2018-06-02T02:37:40.252Z,4.00
2018-06-02T02:38:40.248Z,4.00
2018-06-02T02:39:40.226Z,4.00
2018-06-02T02:40:40.215Z,4.00
2018-06-02T02:42:13.411Z,4.00
2018-06-02T02:42:40.183Z,4.00
2018-06-02T02:44:13.381Z,8.00
2018-06-02T02:44:40.164Z,8.00
2018-06-02T02:45:40.143Z,8.00
2018-06-02T02:46:40.132Z,8.00
2018-06-02T02:47:40.121Z,8.00
2018-06-02T02:48:40.110Z,4.00
2018-06-02T02:49:40.090Z,4.00
2018-06-02T02:50:40.079Z,4.00
2018-06-02T02:52:40.054Z,8.00
2018-06-02T02:53:40.039Z,8.00
2018-06-02T02:54:40.023Z,8.00
2018-06-02T02:55:40.011Z,8.00
2018-06-02T02:56:39.998Z,8.00
2018-06-02T02:57:39.983Z,12.00
2018-06-02T02:58:39.971Z,8.00
2018-06-02T02:59:39.957Z,8.00
2018-06-02T03:00:39.943Z,12.00
2018-06-02T03:01:39.933Z,12.00
2018-06-02T03:02:39.915Z,12.00
2018-06-02T03:03:40.003Z,16.00
2018-06-02T03:04:39.890Z,20.00
2018-06-02T03:05:39.876Z,20.00
2018-06-02T03:06:39.864Z,20.00
2018-06-02T03:07:39.851Z,24.00
2018-06-02T03:08:39.844Z,28.00
2018-06-02T03:09:39.821Z,28.00
2018-06-02T03:10:39.808Z,32.00
2018-06-02T03:11:39.794Z,36.00
2018-06-02T03:12:39.781Z,36.00
2018-06-02T03:13:39.770Z,28.00
2018-06-02T03:14:39.754Z,28.00
2018-06-02T03:15:39.741Z,36.00
2018-06-02T03:16:39.728Z,32.00
2018-06-02T03:17:39.714Z,40.00
2018-06-02T03:18:39.700Z,44.00
2018-06-02T03:19:39.686Z,44.00
2018-06-02T03:20:39.675Z,48.00
2018-06-02T03:21:39.662Z,52.00
2018-06-02T03:22:39.646Z,60.00
2018-06-02T03:23:39.633Z,60.00
2018-06-02T03:24:39.621Z,76.00
2018-06-02T03:25:39.608Z,84.00
2018-06-02T03:26:39.593Z,84.00
2018-06-02T03:27:39.580Z,100.00
2018-06-02T03:28:39.567Z,116.00
2018-06-02T03:29:39.553Z,120.00
2018-06-02T03:30:39.539Z,128.00
2018-06-02T03:31:39.526Z,132.00
2018-06-02T03:32:39.511Z,136.00
2018-06-02T03:33:39.498Z,156.00
2018-06-02T03:34:39.484Z,148.00
2018-06-02T03:35:39.473Z,148.00
2018-06-02T03:36:39.457Z,160.00
2018-06-02T03:37:39.444Z,156.00
2018-06-02T03:38:39.440Z,156.00
2018-06-02T03:39:39.417Z,164.00
2018-06-02T03:40:39.404Z,184.00
2018-06-02T03:41:39.390Z,216.00
2018-06-02T03:42:39.378Z,240.00
2018-06-02T03:43:39.371Z,276.00
2018-06-02T03:44:39.348Z,284.00
2018-06-02T03:45:39.335Z,352.00
2018-06-02T03:46:39.323Z,336.00
2018-06-02T03:47:39.323Z,352.00
2018-06-02T03:48:39.296Z,332.00
2018-06-02T03:50:28.715Z,364.00
2018-06-02T03:51:28.702Z,384.00
2018-06-02T03:52:28.687Z,404.00
2018-06-02T03:54:16.633Z,388.00
2018-06-02T03:55:12.782Z,404.00
2018-06-02T03:57:26.794Z,388.00
2018-06-02T03:58:26.780Z,404.00
2018-06-02T03:59:26.766Z,408.00
2018-06-02T04:00:26.752Z,404.00
2018-06-02T04:01:26.739Z,416.00
2018-06-02T04:03:26.026Z,460.00
2018-06-02T04:04:26.021Z,440.00
2018-06-02T04:05:25.996Z,492.00
2018-06-02T04:06:25.981Z,420.00
2018-06-02T04:07:25.968Z,436.00
2018-06-02T04:08:25.955Z,452.00
2018-06-02T04:09:25.941Z,504.00
2018-06-02T04:10:25.928Z,460.00
2018-06-02T04:11:25.923Z,476.00
2018-06-02T04:12:25.901Z,452.00
2018-06-02T04:13:25.888Z,516.00
2018-06-02T04:14:25.872Z,588.00
2018-06-02T04:15:25.860Z,568.00
2018-06-02T04:16:25.848Z,544.00
2018-06-02T04:17:25.836Z,584.00
2018-06-02T04:18:25.825Z,600.00
2018-06-02T04:19:25.809Z,584.00
2018-06-02T04:20:25.793Z,576.00
2018-06-02T04:21:25.779Z,560.00
2018-06-02T04:22:25.766Z,532.00
2018-06-02T04:23:25.752Z,556.00
2018-06-02T04:24:25.738Z,552.00
2018-06-02T04:25:25.726Z,556.00
2018-06-02T04:26:25.712Z,528.00
2018-06-02T04:27:25.699Z,544.00
2018-06-02T04:28:25.684Z,520.00
2018-06-02T04:29:25.671Z,588.00
2018-06-02T04:30:25.658Z,584.00
2018-06-02T04:31:25.647Z,580.00
2018-06-02T04:32:25.629Z,560.00
2018-06-02T04:33:25.615Z,576.00
2018-06-02T04:34:25.603Z,576.00
2018-06-02T04:35:25.594Z,552.00
2018-06-02T04:36:25.585Z,552.00
2018-06-02T04:37:25.563Z,540.00
2018-06-02T04:38:25.550Z,576.00
2018-06-02T04:39:25.540Z,548.00
2018-06-02T04:40:25.523Z,560.00
2018-06-02T04:41:25.510Z,608.00
2018-06-02T04:42:25.495Z,616.00
2018-06-02T04:43:25.499Z,640.00
2018-06-02T04:44:25.470Z,664.00
2018-06-02T04:45:25.454Z,692.00
2018-06-02T04:46:25.442Z,688.00
2018-06-02T04:47:25.427Z,728.00
2018-06-02T04:48:25.416Z,784.00
2018-06-02T04:49:25.468Z,820.00
2018-06-02T04:50:25.390Z,796.00
2018-06-02T04:51:25.375Z,864.00
2018-06-02T04:52:25.361Z,780.00
2018-06-02T04:53:25.355Z,800.00
2018-06-02T04:54:25.405Z,812.00
2018-06-02T04:55:25.322Z,804.00
2018-06-02T04:56:25.307Z,932.00
2018-06-02T04:57:25.296Z,928.00
2018-06-02T04:58:25.280Z,964.00
2018-06-02T04:59:25.268Z,1056.00
2018-06-02T05:00:25.254Z,1088.00
2018-06-02T05:01:25.262Z,1080.00
2018-06-02T05:02:25.227Z,1036.00
2018-06-02T05:03:25.214Z,988.00
2018-06-02T05:04:25.258Z,936.00
2018-06-02T05:05:25.186Z,924.00
2018-06-02T05:06:25.179Z,876.00
2018-06-02T05:07:25.169Z,896.00
2018-06-02T05:08:25.147Z,896.00
2018-06-02T05:09:25.133Z,892.00
2018-06-02T05:10:25.120Z,944.00
2018-06-02T05:11:25.107Z,992.00
2018-06-02T05:12:25.103Z,956.00
2018-06-02T05:13:25.082Z,912.00
2018-06-02T05:14:25.090Z,952.00
2018-06-02T05:15:25.053Z,1036.00
2018-06-02T05:16:25.040Z,1040.00
2018-06-02T05:17:25.026Z,1060.00
2018-06-02T05:18:25.014Z,1208.00
2018-06-02T05:19:25.001Z,1252.00
2018-06-02T05:20:24.988Z,1260.00
2018-06-02T05:21:24.974Z,1236.00
2018-06-02T05:22:24.959Z,1388.00
2018-06-02T05:23:24.950Z,1336.00
2018-06-02T05:24:24.977Z,1288.00
2018-06-02T05:25:24.921Z,1352.00
2018-06-02T05:26:24.913Z,1392.00
2018-06-02T05:27:24.892Z,1328.00
2018-06-02T05:28:24.883Z,1244.00
2018-06-02T05:29:24.870Z,1172.00
2018-06-02T05:30:24.862Z,1096.00
2018-06-02T05:32:24.830Z,1060.00
2018-06-02T05:33:24.815Z,1100.00
2018-06-02T05:34:24.799Z,1020.00
2018-06-02T05:35:24.825Z,1072.00
2018-06-02T05:36:24.774Z,1112.00
2018-06-02T05:37:24.761Z,1048.00
2018-06-02T05:38:24.747Z,1152.00
2018-06-02T05:39:24.740Z,1308.00
2018-06-02T05:40:24.723Z,1236.00
2018-06-02T05:41:24.708Z,1284.00
2018-06-02T05:42:24.705Z,1288.00
2018-06-02T05:43:24.681Z,1280.00
2018-06-02T05:44:24.683Z,1268.00
2018-06-02T05:45:24.654Z,1400.00
2018-06-02T05:46:24.641Z,1500.00
2018-06-02T05:47:24.627Z,1536.00
2018-06-02T05:48:24.614Z,1572.00
2018-06-02T05:49:24.600Z,1504.00
2018-06-02T05:50:24.587Z,1292.00
2018-06-02T05:52:24.560Z,1116.00
2018-06-02T05:53:24.552Z,1196.00
2018-06-02T05:54:24.537Z,1292.00
2018-06-02T05:55:24.521Z,1376.00
2018-06-02T05:56:24.508Z,1556.00
2018-06-02T05:57:24.493Z,1712.00
2018-06-02T05:58:24.481Z,1548.00
2018-06-02T05:59:24.477Z,1612.00
2018-06-02T06:00:24.458Z,1660.00
2018-06-02T06:01:24.441Z,1636.00
2018-06-02T06:02:24.434Z,1844.00
2018-06-02T06:03:24.415Z,1776.00
2018-06-02T06:04:24.401Z,1788.00
2018-06-02T06:05:24.386Z,1716.00
2018-06-02T06:06:24.375Z,1660.00
2018-06-02T06:07:24.363Z,1688.00
2018-06-02T06:08:24.348Z,1800.00
2018-06-02T06:09:24.335Z,1820.00
2018-06-02T06:10:24.321Z,2100.00
2018-06-02T06:11:24.307Z,2120.00
2018-06-02T06:12:24.293Z,1976.00
2018-06-02T06:13:24.289Z,1848.00
2018-06-02T06:14:24.273Z,1780.00
2018-06-02T06:15:24.260Z,1972.00
2018-06-02T06:16:24.242Z,1948.00
2018-06-02T06:17:24.230Z,1772.00
2018-06-02T06:18:24.234Z,1660.00
2018-06-02T06:19:24.203Z,1596.00
2018-06-02T06:20:24.190Z,1596.00
2018-06-02T06:21:24.182Z,1588.00
2018-06-02T06:22:24.171Z,1672.00
2018-06-02T06:23:24.156Z,1688.00
2018-06-02T06:24:24.141Z,1748.00
2018-06-02T06:25:24.122Z,1820.00
2018-06-02T06:26:24.107Z,2068.00
2018-06-02T06:27:24.094Z,1924.00
2018-06-02T06:28:24.087Z,1840.00
2018-06-02T06:29:24.068Z,2076.00
2018-06-02T06:30:24.057Z,2004.00
2018-06-02T06:31:24.042Z,1984.00
2018-06-02T06:32:24.037Z,1824.00
2018-06-02T06:33:24.019Z,1780.00
2018-06-02T06:34:24.003Z,1956.00
2018-06-02T06:35:23.988Z,1996.00
2018-06-02T06:36:23.977Z,2156.00
2018-06-02T06:37:23.971Z,2216.00
2018-06-02T06:38:24.000Z,2292.00
2018-06-02T06:39:23.936Z,2380.00
2018-06-02T06:40:23.925Z,2312.00
2018-06-02T06:41:23.910Z,2264.00
2018-06-02T06:42:23.896Z,2008.00
2018-06-02T06:43:23.884Z,1928.00
2018-06-02T06:44:23.875Z,1940.00
2018-06-02T06:45:23.865Z,1916.00
2018-06-02T06:46:23.847Z,2176.00
2018-06-02T06:47:23.839Z,2348.00
2018-06-02T06:48:23.821Z,2556.00
2018-06-02T06:49:23.809Z,2620.00
2018-06-02T06:50:23.792Z,2560.00
2018-06-02T06:51:23.777Z,2640.00
2018-06-02T06:52:23.765Z,2408.00
2018-06-02T06:53:23.764Z,2596.00
2018-06-02T06:54:23.748Z,2788.00
2018-06-02T06:55:23.726Z,2516.00
2018-06-02T06:56:23.713Z,2244.00
2018-06-02T06:57:23.698Z,2320.00
2018-06-02T06:58:23.694Z,2316.00
2018-06-02T06:59:23.680Z,2052.00
2018-06-02T07:00:23.659Z,2332.00
2018-06-02T07:01:23.654Z,2368.00
2018-06-02T07:02:23.640Z,2824.00
2018-06-02T07:03:23.619Z,2564.00
2018-06-02T07:04:23.606Z,2180.00
2018-06-02T07:05:23.594Z,2288.00
2018-06-02T07:06:23.586Z,2060.00
2018-06-02T07:07:23.566Z,1944.00
2018-06-02T07:08:23.563Z,1888.00
2018-06-02T07:09:23.538Z,1856.00
2018-06-02T07:10:23.527Z,1764.00
2018-06-02T07:11:23.515Z,1892.00
2018-06-02T07:12:23.517Z,1880.00
2018-06-02T07:13:23.486Z,1984.00
2018-06-02T07:14:23.479Z,2076.00
2018-06-02T07:15:23.461Z,2528.00
2018-06-02T07:16:23.449Z,2852.00
2018-06-02T07:17:23.434Z,2636.00
2018-06-02T07:18:23.429Z,2512.00
2018-06-02T07:19:23.405Z,2212.00
2018-06-02T07:20:23.394Z,2772.00
2018-06-02T07:21:23.380Z,2932.00
2018-06-02T07:22:23.367Z,2624.00
2018-06-02T07:23:23.358Z,2736.00
2018-06-02T07:24:23.342Z,2672.00
2018-06-02T07:25:23.328Z,3060.00
2018-06-02T07:26:23.313Z,3764.00
2018-06-02T07:27:23.309Z,3576.00
2018-06-02T07:28:23.302Z,3596.00
2018-06-02T07:29:23.279Z,4352.00
2018-06-02T07:30:23.263Z,4708.00
2018-06-02T07:31:23.249Z,4736.00
2018-06-02T07:32:23.235Z,5192.00
2018-06-02T07:33:23.222Z,5188.00
2018-06-02T07:34:23.210Z,5580.00
2018-06-02T07:35:23.201Z,5292.00
2018-06-02T07:36:23.184Z,4956.00
2018-06-02T07:37:23.169Z,4648.00
2018-06-02T07:38:23.156Z,4184.00
2018-06-02T07:39:23.152Z,4472.00
2018-06-02T07:40:23.132Z,5160.00
2018-06-02T07:41:23.116Z,4936.00
2018-06-02T07:42:23.106Z,5152.00
2018-06-02T07:43:23.094Z,5188.00
2018-06-02T07:44:23.161Z,4592.00
2018-06-02T07:45:23.075Z,4864.00
2018-06-02T07:46:23.052Z,4612.00
2018-06-02T07:47:23.041Z,4692.00
2018-06-02T07:48:23.036Z,4108.00
2018-06-02T07:49:23.013Z,4100.00
2018-06-02T07:50:23.002Z,4416.00
2018-06-02T07:51:22.996Z,4552.00
2018-06-02T07:52:22.974Z,3932.00
2018-06-02T07:53:22.960Z,3276.00
2018-06-02T07:54:22.949Z,3524.00
2018-06-02T07:55:22.937Z,3672.00
2018-06-02T07:56:22.924Z,4732.00
2018-06-02T07:57:22.909Z,6816.00
2018-06-02T07:58:22.897Z,7180.00
2018-06-02T07:59:22.887Z,7608.00
2018-06-02T08:00:22.873Z,6600.00
2018-06-02T08:01:22.865Z,6648.00
2018-06-02T08:02:22.846Z,6748.00
2018-06-02T08:03:22.833Z,6064.00
2018-06-02T08:04:22.820Z,5732.00
2018-06-02T08:05:22.810Z,5980.00
2018-06-02T08:06:22.799Z,6220.00
2018-06-02T08:07:22.782Z,6372.00
2018-06-02T08:08:22.839Z,7152.00
2018-06-02T08:09:22.763Z,6800.00
2018-06-02T08:10:22.745Z,8336.00
2018-06-02T08:11:22.739Z,9396.00
2018-06-02T08:12:22.719Z,8636.00
2018-06-02T08:13:22.705Z,8040.00
2018-06-02T08:14:22.704Z,8016.00
2018-06-02T08:15:22.682Z,7756.00
2018-06-02T08:16:22.668Z,7320.00
2018-06-02T08:17:22.664Z,5936.00
2018-06-02T08:18:22.660Z,6644.00
2018-06-02T08:19:22.634Z,4976.00
2018-06-02T08:20:22.623Z,6176.00
2018-06-02T08:21:22.613Z,6156.00
2018-06-02T08:22:22.594Z,5824.00
2018-06-02T08:23:22.583Z,5812.00
2018-06-02T08:24:22.571Z,4844.00
2018-06-02T08:25:22.566Z,5800.00
2018-06-02T08:26:22.544Z,5364.00
2018-06-02T08:27:22.534Z,5888.00
2018-06-02T08:28:22.523Z,6232.00
2018-06-02T08:29:22.509Z,5588.00
2018-06-02T08:30:22.502Z,5340.00
2018-06-02T08:31:22.483Z,6484.00
2018-06-02T08:32:22.471Z,7088.00
2018-06-02T08:33:22.519Z,5440.00
2018-06-02T08:34:22.450Z,5684.00
2018-06-02T08:35:22.432Z,5076.00
2018-06-02T08:36:22.429Z,5932.00
2018-06-02T08:37:22.411Z,5952.00
2018-06-02T08:38:22.396Z,6604.00
2018-06-02T08:39:22.385Z,5508.00
2018-06-02T08:40:22.368Z,6432.00
2018-06-02T08:41:22.358Z,7684.00
2018-06-02T08:42:22.354Z,7552.00
2018-06-02T08:43:22.337Z,7540.00
2018-06-02T08:44:22.323Z,7216.00
2018-06-02T08:45:22.309Z,7976.00
2018-06-02T08:46:22.347Z,7096.00
2018-06-02T08:47:22.281Z,7916.00
2018-06-02T08:48:22.269Z,8900.00
2018-06-02T08:49:22.256Z,8468.00
2018-06-02T08:50:22.247Z,6868.00
2018-06-02T08:51:22.231Z,6380.00
2018-06-02T08:52:22.219Z,6528.00
2018-06-02T08:53:22.206Z,7816.00
2018-06-02T08:54:22.255Z,9256.00
2018-06-02T08:55:22.189Z,8824.00
2018-06-02T08:56:22.188Z,7180.00
2018-06-02T08:58:22.178Z,7928.00
2018-06-02T08:59:22.143Z,8948.00
2018-06-02T09:00:22.144Z,8712.00
2018-06-02T09:01:22.112Z,8180.00
2018-06-02T09:02:25.737Z,7796.00
2018-06-02T09:03:22.088Z,9056.00
2018-06-02T09:04:22.081Z,9268.00
2018-06-02T09:05:22.080Z,8992.00
2018-06-02T09:06:22.048Z,10256.00
2018-06-02T09:07:22.036Z,8904.00
2018-06-02T09:08:22.032Z,8752.00
2018-06-02T09:09:22.013Z,12772.00
2018-06-02T09:10:22.004Z,13552.00
2018-06-02T09:11:21.992Z,13196.00
2018-06-02T09:12:22.987Z,10208.00
2018-06-02T09:13:21.964Z,9660.00
2018-06-02T09:14:21.982Z,10480.00
2018-06-02T09:15:21.941Z,11648.00
2018-06-02T09:16:21.933Z,11580.00
2018-06-02T09:17:21.916Z,11532.00
2018-06-02T09:19:21.907Z,9516.00
2018-06-02T09:20:21.887Z,7872.00
2018-06-02T09:21:21.872Z,8308.00
2018-06-02T09:22:21.856Z,7420.00
2018-06-02T09:23:21.852Z,5888.00
2018-06-02T09:24:21.851Z,6580.00
2018-06-02T09:25:21.822Z,10812.00
2018-06-02T09:26:21.810Z,11708.00
2018-06-02T09:27:21.849Z,10796.00
2018-06-02T09:28:21.787Z,9652.00
2018-06-02T09:29:21.774Z,8016.00
2018-06-02T09:30:21.763Z,6416.00
2018-06-02T09:31:21.751Z,7048.00
2018-06-02T09:32:21.740Z,7324.00
2018-06-02T09:33:21.731Z,14900.00
2018-06-02T09:34:21.790Z,18240.00
2018-06-02T09:35:21.754Z,17472.00
2018-06-02T09:36:21.694Z,15424.00
2018-06-02T09:37:21.681Z,15060.00
2018-06-02T09:38:21.673Z,18176.00
2018-06-02T09:39:21.658Z,18912.00
2018-06-02T09:40:21.652Z,20064.00
2018-06-02T09:41:21.635Z,19488.00
2018-06-02T09:42:21.625Z,19584.00
2018-06-02T09:43:21.719Z,20992.00
2018-06-02T09:44:21.601Z,21152.00
2018-06-02T09:45:21.589Z,20096.00
2018-06-02T09:46:21.579Z,17440.00
2018-06-02T09:47:21.576Z,13556.00
2018-06-02T09:48:21.558Z,12544.00
2018-06-02T09:49:21.554Z,10952.00
2018-06-02T09:50:21.542Z,11576.00
2018-06-02T09:51:21.530Z,13252.00
2018-06-02T09:52:21.521Z,13996.00
2018-06-02T09:53:21.501Z,13076.00
2018-06-02T09:54:21.491Z,13128.00
2018-06-02T09:55:21.479Z,13944.00
2018-06-02T09:56:21.472Z,14732.00
2018-06-02T09:57:21.466Z,14240.00
2018-06-02T09:58:21.458Z,12820.00
2018-06-02T09:59:21.439Z,11204.00
2018-06-02T10:00:21.427Z,9900.00
2018-06-02T10:01:21.426Z,11192.00
2018-06-02T10:02:21.412Z,12220.00
2018-06-02T10:03:21.397Z,12080.00
2018-06-02T10:04:21.387Z,11520.00
2018-06-02T10:05:21.380Z,11312.00
2018-06-02T10:06:21.373Z,11868.00
2018-06-02T10:07:21.359Z,11476.00
2018-06-02T10:08:21.345Z,11600.00
2018-06-02T10:09:21.330Z,10788.00
2018-06-02T10:10:21.320Z,11208.00
2018-06-02T10:11:21.308Z,12180.00
2018-06-02T10:12:21.298Z,13348.00
2018-06-02T10:13:21.302Z,13736.00
2018-06-02T10:14:21.275Z,14144.00
2018-06-02T10:15:21.283Z,13800.00
2018-06-02T10:16:21.267Z,15120.00
2018-06-02T10:17:21.251Z,16028.00
2018-06-02T10:18:21.238Z,16556.00
2018-06-02T10:19:21.233Z,18432.00
2018-06-02T10:20:21.221Z,18048.00
2018-06-02T10:21:21.201Z,18432.00
2018-06-02T10:22:21.204Z,18432.00
2018-06-02T10:23:21.182Z,17536.00
2018-06-02T10:24:21.177Z,16160.00
2018-06-02T10:25:21.174Z,15184.00
2018-06-02T10:26:21.150Z,15344.00
2018-06-02T10:27:21.152Z,16992.00
2018-06-02T10:28:21.130Z,19008.00
2018-06-02T10:29:21.120Z,23360.00
2018-06-02T10:30:21.109Z,25696.00
2018-06-02T10:31:21.100Z,24384.00
2018-06-02T10:32:21.099Z,26368.00
2018-06-02T10:33:21.086Z,20864.00
2018-06-02T10:34:21.082Z,20224.00
2018-06-02T10:35:21.067Z,18112.00
2018-06-02T10:36:21.048Z,16992.00
2018-06-02T10:37:21.040Z,15760.00
2018-06-02T10:38:21.033Z,13348.00
2018-06-02T10:39:21.018Z,12060.00
2018-06-02T10:40:21.038Z,10200.00
2018-06-02T10:41:21.006Z,8964.00
2018-06-02T10:42:20.988Z,10580.00
2018-06-02T10:43:20.980Z,10144.00
2018-06-02T10:45:20.961Z,8692.00
2018-06-02T10:46:20.959Z,8060.00
2018-06-02T10:47:20.941Z,12328.00
2018-06-02T10:48:20.934Z,14420.00
2018-06-02T10:49:20.920Z,15604.00
2018-06-02T10:50:20.926Z,15892.00
2018-06-02T10:51:20.919Z,16960.00
2018-06-02T10:52:20.891Z,18624.00
2018-06-02T10:53:20.882Z,19904.00
2018-06-02T10:54:20.871Z,22656.00
2018-06-02T10:55:20.862Z,22560.00
2018-06-02T10:56:20.870Z,19776.00
2018-06-02T10:57:20.843Z,15392.00
2018-06-02T10:58:20.837Z,12796.00
2018-06-02T10:59:20.840Z,10936.00
2018-06-02T11:00:20.813Z,9992.00
2018-06-02T11:01:20.803Z,10956.00
2018-06-02T11:02:20.793Z,13208.00
2018-06-02T11:03:20.785Z,16768.00
2018-06-02T11:04:20.795Z,20672.00
2018-06-02T11:05:20.765Z,22784.00
2018-06-02T11:06:20.762Z,25088.00
2018-06-02T11:07:20.747Z,28768.00
2018-06-02T11:08:20.743Z,27104.00
2018-06-02T11:09:20.730Z,26688.00
2018-06-02T11:10:20.741Z,24608.00
2018-06-02T11:11:20.709Z,20160.00
2018-06-02T11:12:20.709Z,17568.00
2018-06-02T11:13:20.696Z,21152.00
2018-06-02T11:14:20.680Z,17024.00
2018-06-02T11:15:20.672Z,14404.00
2018-06-02T11:16:20.662Z,13276.00
2018-06-02T11:17:20.653Z,11260.00
2018-06-02T11:18:20.643Z,9892.00
2018-06-02T11:19:20.636Z,9044.00
2018-06-02T11:20:20.625Z,8288.00
2018-06-02T11:21:20.625Z,6148.00
2018-06-02T11:22:20.609Z,4548.00
2018-06-02T11:23:20.599Z,4240.00
2018-06-02T11:24:20.589Z,4264.00
2018-06-02T11:25:20.582Z,4156.00
2018-06-02T11:26:20.569Z,4168.00
2018-06-02T11:27:20.559Z,4040.00
2018-06-02T11:28:20.561Z,4172.00
2018-06-02T11:29:20.541Z,4096.00
2018-06-02T11:30:20.541Z,3896.00
2018-06-02T11:31:20.529Z,4252.00
2018-06-02T11:32:20.514Z,5084.00
2018-06-02T11:33:20.502Z,5656.00
2018-06-02T11:34:20.492Z,6048.00
2018-06-02T11:35:20.482Z,6716.00
2018-06-02T11:36:20.473Z,6768.00
2018-06-02T11:37:20.463Z,6588.00
2018-06-02T11:38:20.451Z,6492.00
2018-06-02T11:39:20.447Z,7084.00
2018-06-02T11:40:20.435Z,7440.00
2018-06-02T11:42:20.419Z,8556.00
2018-06-02T11:43:20.411Z,8524.00
2018-06-02T11:44:20.428Z,8436.00
2018-06-02T11:45:20.381Z,8528.00
2018-06-02T11:46:20.371Z,8580.00
2018-06-02T11:47:20.360Z,8608.00
2018-06-02T11:48:20.349Z,8764.00
2018-06-02T11:49:20.340Z,9308.00
2018-06-02T11:50:20.329Z,9944.00
2018-06-02T11:51:20.318Z,10692.00
2018-06-02T11:52:20.311Z,11508.00
2018-06-02T11:53:20.302Z,12432.00
2018-06-02T11:54:20.287Z,14124.00
2018-06-02T11:55:20.277Z,15896.00
2018-06-02T11:56:20.276Z,17472.00
2018-06-02T11:57:20.271Z,18016.00
2018-06-02T11:58:20.251Z,18304.00
2018-06-02T11:59:20.239Z,19872.00
2018-06-02T12:00:20.234Z,20736.00
2018-06-02T12:01:20.217Z,20288.00
2018-06-02T12:02:20.214Z,19232.00
2018-06-02T12:03:20.195Z,18368.00
2018-06-02T12:04:20.193Z,17920.00
2018-06-02T12:05:20.176Z,17920.00
2018-06-02T12:06:20.175Z,18304.00
2018-06-02T12:07:20.164Z,18656.00
2018-06-02T12:08:20.145Z,18336.00
2018-06-02T12:09:20.188Z,17664.00
2018-06-02T12:10:20.138Z,15872.00
2018-06-02T12:11:20.134Z,14168.00
2018-06-02T12:12:20.107Z,12600.00
2018-06-02T12:13:20.098Z,11676.00
2018-06-02T12:14:20.088Z,11856.00
2018-06-02T12:15:20.080Z,12444.00
2018-06-02T12:16:20.069Z,12884.00
2018-06-02T12:17:20.064Z,12740.00
2018-06-02T12:18:20.054Z,12508.00
2018-06-02T12:19:20.042Z,12668.00
2018-06-02T12:20:20.040Z,13540.00
2018-06-02T12:21:20.021Z,13848.00
2018-06-02T12:22:20.019Z,13604.00
2018-06-02T12:23:20.013Z,13480.00
2018-06-02T12:24:19.999Z,12996.00
2018-06-02T12:25:19.983Z,12620.00
2018-06-02T12:26:19.975Z,12700.00
2018-06-02T12:27:19.965Z,12396.00
2018-06-02T12:28:20.010Z,11260.00
2018-06-02T12:29:19.957Z,9852.00
2018-06-02T12:30:19.950Z,9724.00
2018-06-02T12:31:19.930Z,9816.00
2018-06-02T12:32:19.918Z,9776.00
2018-06-02T12:33:19.908Z,9152.00
2018-06-02T12:34:19.898Z,9276.00
2018-06-02T12:35:19.897Z,10036.00
2018-06-02T12:36:19.886Z,11056.00
2018-06-02T12:37:19.872Z,11740.00
2018-06-02T12:38:19.859Z,12260.00